Time;durP1;ratioP1;P1;durP2;ratioP2;P2;SDS_P1;SDS_P2;PMS_P1;PMS_P2;Temp;Humidity;BMP_temperature;BMP_pressure;BME280_temperature;BME280_humidity;BME280_pressure;Samples;Min_cycle;Max_cycle;Signal;HPM_P1;HPM_P2
2023/08/16 00:01:36;;;;;;;;;;;;;;;-144.99;nan;52346.19;5048318;28;19998;-65
2023/08/16 00:04:02;;;;;;;;;;;;;;;-144.99;nan;52321.72;5048042;28;19956;-65
2023/08/16 00:06:29;;;;;;;;;;;;;;;-144.99;nan;52346.19;5049168;28;20034;-65
2023/08/16 00:08:58;;;;;;;;;;;;;;;-144.99;nan;52329.88;5051819;28;20264;-63
2023/08/16 00:11:24;;;;;;;;;;;;;;;-144.99;nan;52325.81;5052853;28;20372;-64
2023/08/16 00:13:52;;;;;;;;;;;;;;;-144.99;nan;52329.88;5051999;28;20368;-64
2023/08/16 00:16:19;;;;;;;;;;;;;;;-144.99;nan;52321.72;5041670;28;20065;-64
2023/08/16 00:18:45;;;;;;;;;;;;;;;-144.99;nan;52317.66;5050013;28;19945;-64
2023/08/16 00:21:12;;;;;;;;;;;;;;;-144.99;nan;52313.56;5052467;28;19984;-63
2023/08/16 00:23:38;;;;;;;;;;;;;;;-144.99;nan;52327.84;5051488;28;19954;-63
2023/08/16 00:26:04;;;;;;;;;;;;;;;-144.99;nan;52303.38;5049517;28;19996;-63
2023/08/16 00:28:31;;;;;;;;;;;;;;;-144.99;nan;52301.34;5052090;28;20537;-63
2023/08/16 00:30:59;;;;;;;;;;;;;;;-144.99;nan;52327.84;5050894;28;19988;-63
2023/08/16 00:33:25;;;;;;;;;;;;;;;-144.99;nan;52321.72;5051655;28;20501;-61
2023/08/16 00:35:52;;;;;;;;;;;;;;;-144.99;nan;52329.88;5052204;28;19981;-61
2023/08/16 00:38:18;;;;;;;;;;;;;;;-144.99;nan;52331.91;5051833;28;19945;-61
2023/08/16 00:40:47;;;;;;;;;;;;;;;-144.99;nan;52307.47;5045943;28;20365;-62
2023/08/16 00:43:14;;;;;;;;;;;;;;;-144.99;nan;52309.50;5051916;28;20452;-62
2023/08/16 00:45:40;;;;;;;;;;;;;;;-144.99;nan;52329.88;5051607;28;19953;-63
2023/08/16 00:48:09;;;;;;;;;;;;;;;-144.99;nan;52317.66;5051228;28;19976;-64
2023/08/16 00:50:35;;;;;;;;;;;;;;;-144.99;nan;52346.19;5051463;28;19950;-64
2023/08/16 00:53:02;;;;;;;;;;;;;;;-144.99;nan;52346.19;5050997;28;19975;-64
2023/08/16 00:55:28;;;;;;;;;;;;;;;-144.99;nan;52346.19;5047937;28;20293;-63
2023/08/16 00:57:55;;;;;;;;;;;;;;;-144.99;nan;52338.03;5050760;28;19973;-64
2023/08/16 01:00:22;;;;;;;;;;;;;;;-144.99;nan;52317.66;5051317;28;20424;-64
2023/08/16 01:02:48;;;;;;;;;;;;;;;-144.99;nan;52382.88;5043478;28;19964;-64
2023/08/16 01:05:16;;;;;;;;;;;;;;;-144.99;nan;52342.09;5051426;28;20041;-63
2023/08/16 01:07:43;;;;;;;;;;;;;;;-144.99;nan;52378.78;5050788;28;19998;-62
2023/08/16 01:10:09;;;;;;;;;;;;;;;-144.99;nan;52325.81;5051193;28;19948;-63
2023/08/16 01:12:42;;;;;;;;;;;;;;;-144.99;nan;52354.34;5051189;28;20056;-64
2023/08/16 01:15:13;;;;;;;;;;;;;;;-144.99;nan;52329.88;5051095;28;19942;-64
2023/08/16 01:17:40;;;;;;;;;;;;;;;-144.99;nan;52305.41;5050396;28;19990;-65
2023/08/16 01:20:08;;;;;;;;;;;;;;;-144.99;nan;52360.44;5051016;28;19985;-64
2023/08/16 01:22:43;;;;;;;;;;;;;;;-144.99;nan;52340.06;5050973;28;19968;-65
2023/08/16 01:25:19;;;;;;;;;;;;;;;-144.99;nan;52309.50;5050712;28;20014;-65
2023/08/16 01:27:48;;;;;;;;;;;;;;;-144.99;nan;52307.47;5050782;28;19992;-65
2023/08/16 01:30:15;;;;;;;;;;;;;;;-144.99;nan;52329.88;5050920;28;20022;-67
2023/08/16 01:32:42;;;;;;;;;;;;;;;-144.99;nan;52350.25;5050602;28;20027;-64
2023/08/16 01:35:08;;;;;;;;;;;;;;;-144.99;nan;52333.94;5050697;28;20482;-67
2023/08/16 01:37:35;;;;;;;;;;;;;;;-144.99;nan;52305.41;5050574;28;20045;-65
2023/08/16 01:40:03;;;;;;;;;;;;;;;-144.99;nan;52321.72;5050973;28;19947;-66
2023/08/16 01:42:30;;;;;;;;;;;;;;;-144.99;nan;52317.66;5051470;28;19973;-65
2023/08/16 01:45:00;;;;;;;;;;;;;;;-144.99;nan;52342.09;5051103;28;20370;-65
2023/08/16 01:47:27;;;;;;;;;;;;;;;-144.99;nan;52346.19;5050833;28;19949;-66
2023/08/16 01:49:56;;;;;;;;;;;;;;;-144.99;nan;52358.41;5050907;28;20017;-65
2023/08/16 01:52:22;;;;;;;;;;;;;;;-144.99;nan;52321.72;5042513;28;19974;-65
2023/08/16 01:54:49;;;;;;;;;;;;;;;-144.99;nan;52352.28;5050449;28;20809;-65
2023/08/16 01:57:15;;;;;;;;;;;;;;;-144.99;nan;52291.16;5045458;28;20044;-65
2023/08/16 01:59:42;;;;;;;;;;;;;;;-144.99;nan;52336.00;5050313;28;19943;-65
2023/08/16 02:02:09;;;;;;;;;;;;;;;-144.99;nan;52317.66;5049991;28;20025;-65
2023/08/16 02:04:36;;;;;;;;;;;;;;;-144.99;nan;52350.25;5049879;28;20047;-65
2023/08/16 02:07:02;;;;;;;;;;;;;;;-144.99;nan;52327.84;5050474;28;19983;-66
2023/08/16 02:09:29;;;;;;;;;;;;;;;-144.99;nan;52362.50;5049611;28;19995;-66
2023/08/16 02:11:55;;;;;;;;;;;;;;;-144.99;nan;52350.25;5050112;28;20011;-66
2023/08/16 02:14:22;;;;;;;;;;;;;;;-144.99;nan;52313.56;5049919;28;19989;-66
2023/08/16 02:16:48;;;;;;;;;;;;;;;-144.99;nan;52350.25;5050029;28;19997;-67
2023/08/16 02:19:16;;;;;;;;;;;;;;;-144.99;nan;52301.34;5049577;28;20121;-66
2023/08/16 02:21:42;;;;;;;;;;;;;;;-144.99;nan;52333.94;5049872;28;20058;-66
2023/08/16 02:24:09;;;;;;;;;;;;;;;-144.99;nan;52309.50;5049360;28;19939;-66
2023/08/16 02:26:36;;;;;;;;;;;;;;;-144.99;nan;52340.06;5049707;28;20042;-66
2023/08/16 02:29:02;;;;;;;;;;;;;;;-144.99;nan;52317.66;5049670;28;19965;-66
2023/08/16 02:31:28;;;;;;;;;;;;;;;-144.99;nan;52362.50;5049602;28;20058;-65
2023/08/16 02:33:55;;;;;;;;;;;;;;;-144.99;nan;52325.81;5050051;28;19944;-65
2023/08/16 02:36:23;;;;;;;;;;;;;;;-144.99;nan;52350.25;5050108;28;20386;-66
2023/08/16 02:38:49;;;;;;;;;;;;;;;-144.99;nan;52350.25;5049233;28;20005;-66
2023/08/16 02:41:16;;;;;;;;;;;;;;;-144.99;nan;52354.34;5049408;28;19993;-66
2023/08/16 02:43:42;;;;;;;;;;;;;;;-144.99;nan;52338.03;5049166;28;20024;-66
2023/08/16 02:46:09;;;;;;;;;;;;;;;-144.99;nan;52358.41;5049249;28;19942;-66
2023/08/16 02:48:35;;;;;;;;;;;;;;;-144.99;nan;52340.06;5041487;28;19964;-66
2023/08/16 02:51:01;;;;;;;;;;;;;;;-144.99;nan;52287.06;5049956;28;20041;-66
2023/08/16 02:53:29;;;;;;;;;;;;;;;-144.99;nan;52374.72;5049077;28;19948;-66
2023/08/16 02:55:56;;;;;;;;;;;;;;;-144.99;nan;52342.09;5049610;28;19942;-66
2023/08/16 02:58:22;;;;;;;;;;;;;;;-144.99;nan;52333.94;5048834;28;19996;-67
2023/08/16 03:00:50;;;;;;;;;;;;;;;-144.99;nan;52331.91;5049381;28;20099;-68
2023/08/16 03:03:16;;;;;;;;;;;;;;;-144.99;nan;52342.09;5048847;28;19962;-68
2023/08/16 03:05:43;;;;;;;;;;;;;;;-144.99;nan;52350.25;5049111;28;19989;-68
2023/08/16 03:08:09;;;;;;;;;;;;;;;-144.99;nan;52348.22;5048890;28;20012;-68
2023/08/16 03:10:37;;;;;;;;;;;;;;;-144.99;nan;52354.34;5043406;28;20413;-68
2023/08/16 03:13:04;;;;;;;;;;;;;;;-144.99;nan;52319.69;5048958;28;20002;-68
2023/08/16 03:15:30;;;;;;;;;;;;;;;-144.99;nan;52360.44;5048966;28;20568;-68
2023/08/16 03:17:57;;;;;;;;;;;;;;;-144.99;nan;52301.34;5048904;28;19947;-70
2023/08/16 03:20:23;;;;;;;;;;;;;;;-144.99;nan;52331.91;5049050;28;20000;-70
2023/08/16 03:22:50;;;;;;;;;;;;;;;-144.99;nan;52311.53;5044650;28;20053;-68
2023/08/16 03:25:17;;;;;;;;;;;;;;;-144.99;nan;52362.50;5047934;28;19991;-67
2023/08/16 03:27:44;;;;;;;;;;;;;;;-144.99;nan;52350.25;5031277;28;19941;-68
2023/08/16 03:30:12;;;;;;;;;;;;;;;-144.99;nan;52317.66;5048618;28;19965;-67
2023/08/16 03:32:38;;;;;;;;;;;;;;;-144.99;nan;52362.50;5048362;28;20062;-68
2023/08/16 03:35:05;;;;;;;;;;;;;;;-144.99;nan;52350.25;5048590;28;20038;-68
2023/08/16 03:37:32;;;;;;;;;;;;;;;-144.99;nan;52338.03;5048453;28;19989;-68
2023/08/16 03:39:59;;;;;;;;;;;;;;;-144.99;nan;52362.50;5048815;28;19949;-68
2023/08/16 03:42:25;;;;;;;;;;;;;;;-144.99;nan;52350.25;5053439;28;19969;-68
2023/08/16 03:44:53;;;;;;;;;;;;;;;-144.99;nan;52338.03;5054894;28;20364;-69
2023/08/16 03:47:19;;;;;;;;;;;;;;;-144.99;nan;52380.84;5049383;28;19949;-69
2023/08/16 03:49:46;;;;;;;;;;;;;;;-144.99;nan;52307.47;5044054;28;20013;-69
2023/08/16 03:52:13;;;;;;;;;;;;;;;-144.99;nan;52360.44;5049765;28;19991;-69
2023/08/16 03:54:39;;;;;;;;;;;;;;;-144.99;nan;52333.94;5055458;28;20042;-71
2023/08/16 03:57:06;;;;;;;;;;;;;;;-144.99;nan;52370.63;5049891;28;19956;-67
2023/08/16 03:59:32;;;;;;;;;;;;;;;-144.99;nan;52327.84;5054943;28;20046;-65
2023/08/16 04:02:00;;;;;;;;;;;;;;;-144.99;nan;52364.53;5053494;28;20056;-67
2023/08/16 04:04:26;;;;;;;;;;;;;;;-144.99;nan;52360.44;5054975;28;19956;-67
2023/08/16 04:06:53;;;;;;;;;;;;;;;-144.99;nan;52329.88;5056492;28;19956;-67
2023/08/16 04:09:19;;;;;;;;;;;;;;;-144.99;nan;52386.94;5064044;22;19983;-61
2023/08/16 04:11:46;;;;;;;;;;;;;;;-144.99;nan;52366.56;5014195;28;20064;-62
2023/08/16 04:14:12;;;;;;;;;;;;;;;-144.99;nan;52342.09;5007231;28;20021;-62
2023/08/16 04:16:39;;;;;;;;;;;;;;;-144.99;nan;52358.41;5009279;28;19983;-62
2023/08/16 04:19:07;;;;;;;;;;;;;;;-144.99;nan;52309.50;5012098;28;20031;-61
2023/08/16 04:21:33;;;;;;;;;;;;;;;-144.99;nan;52366.56;5013602;28;20017;-62
2023/08/16 04:23:59;;;;;;;;;;;;;;;-144.99;nan;52342.09;5005709;28;20052;-64
2023/08/16 04:26:26;;;;;;;;;;;;;;;-144.99;nan;52354.34;5013044;28;20041;-64
2023/08/16 04:28:52;;;;;;;;;;;;;;;-144.99;nan;52376.75;5013016;28;19972;-63
2023/08/16 04:31:19;;;;;;;;;;;;;;;-144.99;nan;52333.94;5013622;28;19945;-63
2023/08/16 04:33:45;;;;;;;;;;;;;;;-144.99;nan;52338.03;5013616;28;19946;-64
2023/08/16 04:36:13;;;;;;;;;;;;;;;-144.99;nan;52354.34;5014083;28;19959;-66
2023/08/16 04:38:40;;;;;;;;;;;;;;;-144.99;nan;52313.56;5013977;28;20335;-63
2023/08/16 04:41:06;;;;;;;;;;;;;;;-144.99;nan;52329.88;5014218;28;20631;-62
2023/08/16 04:43:33;;;;;;;;;;;;;;;-144.99;nan;52344.16;5007489;28;19950;-63
2023/08/16 04:45:59;;;;;;;;;;;;;;;-144.99;nan;52319.69;5010197;28;19947;-64
2023/08/16 04:48:25;;;;;;;;;;;;;;;-144.99;nan;52333.94;5013547;28;20671;-69
2023/08/16 04:50:52;;;;;;;;;;;;;;;-144.99;nan;52317.66;5014230;28;20595;-69
2023/08/16 04:53:20;;;;;;;;;;;;;;;-144.99;nan;52338.03;5010709;28;20005;-65
2023/08/16 04:55:46;;;;;;;;;;;;;;;-144.99;nan;52340.06;5011004;28;19943;-64
2023/08/16 04:58:13;;;;;;;;;;;;;;;-144.99;nan;52362.50;5008776;28;19994;-64
2023/08/16 05:00:39;;;;;;;;;;;;;;;-144.99;nan;52358.41;5011244;28;19947;-63
2023/08/16 05:03:06;;;;;;;;;;;;;;;-144.99;nan;52344.16;5001712;28;20009;-64
2023/08/16 05:05:32;;;;;;;;;;;;;;;-144.99;nan;52325.81;5006134;28;20338;-64
2023/08/16 05:07:59;;;;;;;;;;;;;;;-144.99;nan;52342.09;5006297;28;19997;-62
2023/08/16 05:10:26;;;;;;;;;;;;;;;-144.99;nan;52338.03;5010656;28;20014;-62
2023/08/16 05:12:53;;;;;;;;;;;;;;;-144.99;nan;52301.34;5001832;28;20018;-63
2023/08/16 05:15:20;;;;;;;;;;;;;;;-144.99;nan;52342.09;5003692;28;20036;-63
2023/08/16 05:17:46;;;;;;;;;;;;;;;-144.99;nan;52346.19;5011364;28;20035;-64
2023/08/16 05:20:13;;;;;;;;;;;;;;;-144.99;nan;52338.03;5012191;28;20027;-63
2023/08/16 05:22:40;;;;;;;;;;;;;;;-144.99;nan;52342.09;5008921;28;19959;-64
2023/08/16 05:25:07;;;;;;;;;;;;;;;-144.99;nan;52340.06;5006807;28;20243;-62
2023/08/16 05:27:35;;;;;;;;;;;;;;;-144.99;nan;52287.06;5006793;28;20358;-60
2023/08/16 05:30:01;;;;;;;;;;;;;;;-144.99;nan;52309.50;5002881;28;20141;-62
2023/08/16 05:32:27;;;;;;;;;;;;;;;-144.99;nan;52342.09;5010208;28;20405;-64
2023/08/16 05:34:54;;;;;;;;;;;;;;;-144.99;nan;52252.44;5003770;28;20370;-64
2023/08/16 05:37:20;;;;;;;;;;;;;;;-144.99;nan;52297.25;5010502;28;20379;-63
2023/08/16 05:39:47;;;;;;;;;;;;;;;-144.99;nan;52323.75;5002989;28;19942;-64
2023/08/16 05:42:14;;;;;;;;;;;;;;;-144.99;nan;52295.22;5006750;28;19969;-62
2023/08/16 05:44:42;;;;;;;;;;;;;;;-144.99;nan;52327.84;5007307;28;19950;-63
2023/08/16 05:47:08;;;;;;;;;;;;;;;-144.99;nan;52301.34;5010698;28;20034;-63
2023/08/16 05:49:34;;;;;;;;;;;;;;;-144.99;nan;52256.50;5007877;28;20012;-63
2023/08/16 05:52:01;;;;;;;;;;;;;;;-144.99;nan;52276.88;4999904;28;19959;-64
2023/08/16 05:54:27;;;;;;;;;;;;;;;-144.99;nan;52297.25;5008715;28;19994;-64
2023/08/16 05:56:54;;;;;;;;;;;;;;;-144.99;nan;52285.03;5002139;28;19952;-62
2023/08/16 05:59:20;;;;;;;;;;;;;;;-144.99;nan;52266.69;5005239;28;19979;-69
2023/08/16 06:01:48;;;;;;;;;;;;;;;-144.99;nan;52268.72;5010641;28;20008;-69
2023/08/16 06:04:15;;;;;;;;;;;;;;;-144.99;nan;52301.34;5007429;28;19981;-70
2023/08/16 06:06:41;;;;;;;;;;;;;;;-144.99;nan;52264.66;5010121;28;19956;-72
2023/08/16 06:09:08;;;;;;;;;;;;;;;-144.99;nan;52264.66;5009525;28;19944;-70
2023/08/16 06:11:34;;;;;;;;;;;;;;;-144.99;nan;52264.66;5005205;28;20053;-71
2023/08/16 06:14:00;;;;;;;;;;;;;;;-144.99;nan;52256.50;5003416;28;19948;-69
2023/08/16 06:16:27;;;;;;;;;;;;;;;-144.99;nan;52268.72;5009066;28;20038;-69
2023/08/16 06:18:56;;;;;;;;;;;;;;;-144.99;nan;52272.81;5004211;28;20323;-70
2023/08/16 06:21:22;;;;;;;;;;;;;;;-144.99;nan;52272.81;5008738;28;20181;-71
2023/08/16 06:23:49;;;;;;;;;;;;;;;-144.99;nan;52289.13;5005586;28;19946;-70
2023/08/16 06:26:15;;;;;;;;;;;;;;;-144.99;nan;52272.81;5009422;28;20059;-69
2023/08/16 06:28:42;;;;;;;;;;;;;;;-144.99;nan;52244.28;5003979;28;20459;-70
2023/08/16 06:31:08;;;;;;;;;;;;;;;-144.99;nan;52268.72;5005960;28;20065;-69
2023/08/16 06:33:34;;;;;;;;;;;;;;;-144.99;nan;52260.56;5002743;28;20034;-71
2023/08/16 06:36:03;;;;;;;;;;;;;;;-144.99;nan;52250.38;5007846;28;19953;-72
2023/08/16 06:38:29;;;;;;;;;;;;;;;-144.99;nan;52272.81;5006244;28;19988;-67
2023/08/16 06:40:56;;;;;;;;;;;;;;;-144.99;nan;52252.44;5006166;28;19950;-70
2023/08/16 06:43:23;;;;;;;;;;;;;;;-144.99;nan;52254.47;5008000;28;20392;-72
2023/08/16 06:45:50;;;;;;;;;;;;;;;-144.99;nan;52250.38;5007836;28;20037;-73
2023/08/16 06:48:16;;;;;;;;;;;;;;;-144.99;nan;52232.03;4998435;28;20038;-73
2023/08/16 06:50:43;;;;;;;;;;;;;;;-144.99;nan;52272.81;5007521;28;19972;-72
2023/08/16 06:53:11;;;;;;;;;;;;;;;-144.99;nan;52285.03;5008228;28;19958;-71
2023/08/16 06:55:37;;;;;;;;;;;;;;;-144.99;nan;52260.56;5014015;28;19973;-73
2023/08/16 06:58:05;;;;;;;;;;;;;;;-144.99;nan;52248.34;5008189;28;19985;-70
2023/08/16 07:00:31;;;;;;;;;;;;;;;-144.99;nan;52252.44;5008378;28;20030;-70
2023/08/16 07:02:58;;;;;;;;;;;;;;;-144.99;nan;52248.34;5007325;28;20436;-70
2023/08/16 07:05:26;;;;;;;;;;;;;;;-144.99;nan;52236.13;5010845;28;19987;-70
2023/08/16 07:07:52;;;;;;;;;;;;;;;-144.99;nan;52262.63;5009419;28;20300;-70
2023/08/16 07:10:20;;;;;;;;;;;;;;;-144.99;nan;52240.19;5009726;28;20051;-70
2023/08/16 07:12:46;;;;;;;;;;;;;;;-144.99;nan;52252.44;5008507;28;20019;-69
2023/08/16 07:15:13;;;;;;;;;;;;;;;-144.99;nan;52268.72;5008206;28;20041;-70
2023/08/16 07:17:40;;;;;;;;;;;;;;;-144.99;nan;52280.97;5007764;28;20042;-70
2023/08/16 07:20:07;;;;;;;;;;;;;;;-144.99;nan;52252.44;5010003;28;19971;-70
2023/08/16 07:22:37;;;;;;;;;;;;;;;-144.99;nan;52211.66;5010888;28;20335;-70
2023/08/16 07:25:04;;;;;;;;;;;;;;;-144.99;nan;52221.84;5008038;28;19968;-70
2023/08/16 07:27:32;;;;;;;;;;;;;;;-144.99;nan;52223.88;5006717;28;20380;-70
2023/08/16 07:29:58;;;;;;;;;;;;;;;-144.99;nan;52252.44;5006846;28;19955;-70
2023/08/16 07:32:24;;;;;;;;;;;;;;;-144.99;nan;52264.66;5007303;28;19999;-70
2023/08/16 07:34:51;;;;;;;;;;;;;;;-144.99;nan;52234.09;5008367;28;19941;-70
2023/08/16 07:37:18;;;;;;;;;;;;;;;-144.99;nan;52260.56;5007494;28;19995;-70
2023/08/16 07:39:45;;;;;;;;;;;;;;;-144.99;nan;52240.19;5008484;28;20041;-70
2023/08/16 07:42:11;;;;;;;;;;;;;;;-144.99;nan;52223.88;5008435;28;20161;-71
2023/08/16 07:44:39;;;;;;;;;;;;;;;-144.99;nan;52217.78;5002926;28;19947;-71
2023/08/16 07:47:06;;;;;;;;;;;;;;;-144.99;nan;52238.16;5008231;28;19945;-71
2023/08/16 07:49:32;;;;;;;;;;;;;;;-144.99;nan;52183.13;5008198;28;20040;-70
2023/08/16 07:51:59;;;;;;;;;;;;;;;-144.99;nan;52219.81;5004954;28;20005;-65
2023/08/16 07:54:25;;;;;;;;;;;;;;;-144.99;nan;52191.28;5004970;28;20432;-65
2023/08/16 07:56:52;;;;;;;;;;;;;;;-144.99;nan;52207.59;5003629;28;19942;-65
2023/08/16 07:59:19;;;;;;;;;;;;;;;-144.99;nan;52232.03;5009776;28;20371;-65
2023/08/16 08:01:47;;;;;;;;;;;;;;;-144.99;nan;52205.53;5009729;28;20015;-65
2023/08/16 08:04:13;;;;;;;;;;;;;;;-144.99;nan;52197.41;5004485;28;20007;-65
2023/08/16 08:06:39;;;;;;;;;;;;;;;-144.99;nan;52203.50;5008406;28;19948;-64
2023/08/16 08:09:06;;;;;;;;;;;;;;;-144.99;nan;52236.13;5007207;28;19997;-64
2023/08/16 08:11:32;;;;;;;;;;;;;;;-144.99;nan;52170.91;5008877;28;19969;-66
2023/08/16 08:13:59;;;;;;;;;;;;;;;-144.99;nan;52203.50;5023636;28;19985;-66
2023/08/16 08:16:25;;;;;;;;;;;;;;;-144.99;nan;52244.28;5000679;28;19989;-65
2023/08/16 08:18:53;;;;;;;;;;;;;;;-144.99;nan;52191.28;5006229;28;19944;-66
2023/08/16 08:21:20;;;;;;;;;;;;;;;-144.99;nan;52195.34;5009590;28;20323;-65
2023/08/16 08:23:46;;;;;;;;;;;;;;;-144.99;nan;52203.50;5008575;28;20030;-65
2023/08/16 08:26:13;;;;;;;;;;;;;;;-144.99;nan;52221.84;5002128;28;20408;-64
2023/08/16 08:28:39;;;;;;;;;;;;;;;-144.99;nan;52195.34;5010451;28;20411;-65
2023/08/16 08:31:06;;;;;;;;;;;;;;;-144.99;nan;52219.81;5009727;28;20023;-64
2023/08/16 08:33:32;;;;;;;;;;;;;;;-144.99;nan;52203.50;5007404;28;20044;-65
2023/08/16 08:36:01;;;;;;;;;;;;;;;-144.99;nan;52170.91;5012419;28;20001;-66
2023/08/16 08:38:27;;;;;;;;;;;;;;;-144.99;nan;52223.88;5012183;28;20014;-66
2023/08/16 08:40:57;;;;;;;;;;;;;;;-144.99;nan;52225.94;5012605;28;19960;-65
2023/08/16 08:43:26;;;;;;;;;;;;;;;-144.99;nan;52170.91;5011620;28;19967;-66
2023/08/16 08:45:52;;;;;;;;;;;;;;;-144.99;nan;52179.06;5000509;28;19955;-66
2023/08/16 08:48:20;;;;;;;;;;;;;;;-144.99;nan;52195.34;5012063;28;20033;-66
2023/08/16 08:50:47;;;;;;;;;;;;;;;-144.99;nan;52203.50;5006083;28;19960;-66
2023/08/16 08:53:15;;;;;;;;;;;;;;;-144.99;nan;52215.75;5011477;28;20016;-66
2023/08/16 08:55:44;;;;;;;;;;;;;;;-144.99;nan;52183.13;5004390;28;20129;-65
2023/08/16 08:58:10;;;;;;;;;;;;;;;-144.99;nan;52162.75;5010823;28;19964;-66
2023/08/16 09:00:39;;;;;;;;;;;;;;;-144.99;nan;52189.25;5011697;28;19981;-65
2023/08/16 09:03:07;;;;;;;;;;;;;;;-144.99;nan;52179.06;5003575;28;19964;-65
2023/08/16 09:05:34;;;;;;;;;;;;;;;-144.99;nan;52183.13;5003772;28;19974;-65
2023/08/16 09:08:01;;;;;;;;;;;;;;;-144.99;nan;52150.53;5004736;28;20035;-65
2023/08/16 09:10:29;;;;;;;;;;;;;;;-144.99;nan;52166.81;5011207;28;19959;-66
2023/08/16 09:12:56;;;;;;;;;;;;;;;-144.99;nan;52107.72;5000208;28;20049;-66
2023/08/16 09:15:22;;;;;;;;;;;;;;;-144.99;nan;52158.66;5000903;28;20041;-66
2023/08/16 09:17:50;;;;;;;;;;;;;;;-144.99;nan;52166.81;5012331;28;19978;-66
2023/08/16 09:20:18;;;;;;;;;;;;;;;-144.99;nan;52134.22;5010918;28;19949;-65
2023/08/16 09:22:48;;;;;;;;;;;;;;;-144.99;nan;52134.22;5000847;28;20435;-65
2023/08/16 09:25:14;;;;;;;;;;;;;;;-144.99;nan;52130.13;5007011;28;20056;-66
2023/08/16 09:27:42;;;;;;;;;;;;;;;-144.99;nan;52170.91;5011792;28;20053;-67
2023/08/16 09:30:12;;;;;;;;;;;;;;;-144.99;nan;52166.81;5011823;28;20008;-66
2023/08/16 09:32:39;;;;;;;;;;;;;;;-144.99;nan;52117.91;5000756;28;19975;-65
2023/08/16 09:35:08;;;;;;;;;;;;;;;-144.99;nan;52113.84;5007119;28;19949;-65
2023/08/16 09:37:35;;;;;;;;;;;;;;;-144.99;nan;52117.91;5011153;28;19950;-66
2023/08/16 09:40:04;;;;;;;;;;;;;;;-144.99;nan;52105.69;5009877;28;19998;-65
2023/08/16 09:42:31;;;;;;;;;;;;;;;-144.99;nan;52130.13;5004972;28;19965;-65
2023/08/16 09:44:58;;;;;;;;;;;;;;;-144.99;nan;52124.03;5005555;28;20056;-65
2023/08/16 09:47:25;;;;;;;;;;;;;;;-144.99;nan;52168.84;5005990;28;19945;-66
2023/08/16 09:49:51;;;;;;;;;;;;;;;-144.99;nan;52130.13;5006917;28;20437;-66
2023/08/16 09:52:18;;;;;;;;;;;;;;;-144.99;nan;52105.69;5003706;28;19972;-65
2023/08/16 09:54:47;;;;;;;;;;;;;;;-144.99;nan;52105.69;5003452;28;19965;-65
2023/08/16 09:57:14;;;;;;;;;;;;;;;-144.99;nan;52113.84;4999549;28;19988;-65
2023/08/16 09:59:42;;;;;;;;;;;;;;;-144.99;nan;52071.03;5007789;28;19999;-65
2023/08/16 10:02:12;;;;;;;;;;;;;;;-144.99;nan;52085.31;4996062;28;19966;-65
2023/08/16 10:04:39;;;;;;;;;;;;;;;-144.99;nan;52089.38;5008607;28;20360;-65
2023/08/16 10:07:06;;;;;;;;;;;;;;;-144.99;nan;52097.53;5008538;28;20045;-66
2023/08/16 10:09:33;;;;;;;;;;;;;;;-144.99;nan;52048.63;5006095;28;19952;-66
2023/08/16 10:12:01;;;;;;;;;;;;;;;-144.99;nan;52095.50;5009651;28;20341;-66
2023/08/16 10:14:28;;;;;;;;;;;;;;;-144.99;nan;52066.97;5002709;28;20054;-66
2023/08/16 10:16:58;;;;;;;;;;;;;;;-144.99;nan;52052.69;5006319;28;19995;-66
2023/08/16 10:19:26;;;;;;;;;;;;;;;-144.99;nan;52056.78;5010209;28;19986;-65
2023/08/16 10:21:53;;;;;;;;;;;;;;;-144.99;nan;52085.31;5005310;28;20049;-66
2023/08/16 10:24:21;;;;;;;;;;;;;;;-144.99;nan;52087.34;5002310;28;19948;-66
2023/08/16 10:26:49;;;;;;;;;;;;;;;-144.99;nan;52062.88;5003191;28;19942;-66
2023/08/16 10:29:18;;;;;;;;;;;;;;;-144.99;nan;52060.84;5010031;28;20016;-66
2023/08/16 10:31:46;;;;;;;;;;;;;;;-144.99;nan;52020.09;4998616;28;19960;-66
2023/08/16 10:34:14;;;;;;;;;;;;;;;-144.99;nan;51991.56;5004979;28;19961;-65
2023/08/16 10:36:42;;;;;;;;;;;;;;;-144.99;nan;52040.47;5010564;28;19995;-65
2023/08/16 10:39:08;;;;;;;;;;;;;;;-144.99;nan;52005.81;5010679;28;20002;-65
2023/08/16 10:41:41;;;;;;;;;;;;;;;-144.99;nan;51995.63;5001677;28;20040;-66
2023/08/16 10:44:08;;;;;;;;;;;;;;;-144.99;nan;52016.00;5001453;28;19950;-64
2023/08/16 10:46:35;;;;;;;;;;;;;;;-144.99;nan;52091.41;5008382;28;20026;-65
2023/08/16 10:49:02;;;;;;;;;;;;;;;-144.99;nan;51934.50;5009886;28;19945;-66
2023/08/16 10:51:29;;;;;;;;;;;;;;;-144.99;nan;52036.38;5008221;28;19997;-65
2023/08/16 10:53:57;;;;;;;;;;;;;;;-144.99;nan;52087.34;5009264;28;20413;-66
2023/08/16 10:56:24;;;;;;;;;;;;;;;-144.99;nan;52056.78;5005021;28;20382;-66
2023/08/16 10:58:51;;;;;;;;;;;;;;;-144.99;nan;52050.66;5004817;28;20049;-67
2023/08/16 11:01:18;;;;;;;;;;;;;;;-144.99;nan;52081.22;5004713;28;20044;-65
2023/08/16 11:03:46;;;;;;;;;;;;;;;-144.99;nan;52085.31;5001536;28;20254;-66
2023/08/16 11:06:13;;;;;;;;;;;;;;;-144.99;nan;52101.59;5007941;28;19946;-66
2023/08/16 11:08:41;;;;;;;;;;;;;;;-144.99;nan;52036.38;5009845;28;20452;-65
2023/08/16 11:11:09;;;;;;;;;;;;;;;-144.99;nan;52089.38;5009188;28;19946;-64
2023/08/16 11:13:36;;;;;;;;;;;;;;;-144.99;nan;52050.66;5010075;28;20038;-66
2023/08/16 11:16:02;;;;;;;;;;;;;;;-144.99;nan;52060.84;5005902;28;19979;-66
2023/08/16 11:18:30;;;;;;;;;;;;;;;-144.99;nan;52052.69;5006561;28;19952;-66
2023/08/16 11:20:59;;;;;;;;;;;;;;;-144.99;nan;52064.91;5009223;28;19940;-66
2023/08/16 11:23:30;;;;;;;;;;;;;;;-144.99;nan;51920.22;5008009;28;19979;-66
2023/08/16 11:25:59;;;;;;;;;;;;;;;-144.99;nan;52044.53;5004834;28;19982;-66
2023/08/16 11:28:26;;;;;;;;;;;;;;;-144.99;nan;52083.25;5004876;28;19952;-66
2023/08/16 11:30:55;;;;;;;;;;;;;;;-144.99;nan;52036.38;5006391;28;19974;-66
2023/08/16 11:33:22;;;;;;;;;;;;;;;-144.99;nan;52048.63;5008853;28;20058;-66
2023/08/16 11:35:48;;;;;;;;;;;;;;;-144.99;nan;52020.09;5006119;28;20497;-66
2023/08/16 11:38:15;;;;;;;;;;;;;;;-144.99;nan;52036.38;4993881;28;20479;-65
2023/08/16 11:40:42;;;;;;;;;;;;;;;-144.99;nan;52087.34;5007189;28;20040;-65
2023/08/16 11:43:08;;;;;;;;;;;;;;;-144.99;nan;52056.78;4999148;28;20450;-65
2023/08/16 11:45:36;;;;;;;;;;;;;;;-144.99;nan;52024.16;5005265;28;20039;-66
2023/08/16 11:48:04;;;;;;;;;;;;;;;-144.99;nan;52036.38;5009187;28;20413;-66
2023/08/16 11:50:30;;;;;;;;;;;;;;;-144.99;nan;51967.09;5002008;28;19976;-67
2023/08/16 11:52:57;;;;;;;;;;;;;;;-144.99;nan;52064.91;5008515;28;19964;-66
2023/08/16 11:55:24;;;;;;;;;;;;;;;-144.99;nan;52077.16;5008046;28;19955;-65
2023/08/16 11:57:51;;;;;;;;;;;;;;;-144.99;nan;52107.72;5007110;28;19943;-66
2023/08/16 12:00:25;;;;;;;;;;;;;;;-144.99;nan;52093.44;5009077;28;20003;-66
2023/08/16 12:02:53;;;;;;;;;;;;;;;-144.99;nan;52099.56;4999425;28;19998;-65
2023/08/16 12:05:20;;;;;;;;;;;;;;;-144.99;nan;52113.84;5012290;28;20021;-65
2023/08/16 12:07:51;;;;;;;;;;;;;;;-144.99;nan;52126.06;5013326;28;19948;-65
2023/08/16 12:10:22;;;;;;;;;;;;;;;-144.99;nan;52085.31;5008783;28;20430;-65
2023/08/16 12:12:49;;;;;;;;;;;;;;;-144.99;nan;52097.53;5011576;28;20332;-66
2023/08/16 12:15:15;;;;;;;;;;;;;;;-144.99;nan;52115.88;5009813;28;19942;-66
2023/08/16 12:17:41;;;;;;;;;;;;;;;-144.99;nan;52105.69;5009449;28;20050;-66
2023/08/16 12:20:10;;;;;;;;;;;;;;;-144.99;nan;52064.91;5006048;28;20029;-66
2023/08/16 12:22:37;;;;;;;;;;;;;;;-144.99;nan;51914.09;5011483;28;20079;-66
2023/08/16 12:25:03;;;;;;;;;;;;;;;-144.99;nan;52032.31;5005997;28;19975;-66
2023/08/16 12:27:30;;;;;;;;;;;;;;;-144.99;nan;51910.03;5008969;28;19949;-66
2023/08/16 12:29:56;;;;;;;;;;;;;;;-144.99;nan;51999.69;4997472;28;20006;-66
2023/08/16 12:32:23;;;;;;;;;;;;;;;-144.99;nan;52007.84;5007386;28;20409;-66
2023/08/16 12:34:49;;;;;;;;;;;;;;;-144.99;nan;51942.63;5000776;28;19947;-65
2023/08/16 12:37:17;;;;;;;;;;;;;;;-144.99;nan;51983.41;5012372;28;19956;-65
2023/08/16 12:39:43;;;;;;;;;;;;;;;-144.99;nan;51983.41;5010100;28;19944;-65
2023/08/16 12:42:10;;;;;;;;;;;;;;;-144.99;nan;51975.25;5011845;28;20390;-66
2023/08/16 12:44:36;;;;;;;;;;;;;;;-144.99;nan;52016.00;5002932;28;19989;-66
2023/08/16 12:47:03;;;;;;;;;;;;;;;-144.99;nan;51999.69;5006695;28;19979;-66